createdAt,value
2022-08-21T04:30:51.340Z,88.80
2022-08-21T04:31:51.344Z,89.11
2022-08-21T04:32:51.356Z,88.90
2022-08-21T04:33:51.297Z,88.80
2022-08-21T04:34:51.322Z,89.11
2022-08-21T04:35:51.280Z,89.72
2022-08-21T04:36:51.262Z,89.21
2022-08-21T04:37:51.306Z,89.92
2022-08-21T04:38:51.240Z,90.12
2022-08-21T04:39:53.557Z,89.21
2022-08-21T04:40:51.225Z,89.11
2022-08-21T04:41:51.220Z,89.31
2022-08-21T04:42:51.285Z,88.80
2022-08-21T04:43:51.182Z,89.01
2022-08-21T04:44:51.174Z,89.81
2022-08-21T04:45:51.187Z,89.51
2022-08-21T04:46:51.160Z,89.81
2022-08-21T04:47:52.719Z,89.11
2022-08-21T04:48:51.188Z,89.11
2022-08-21T04:49:51.131Z,89.11
2022-08-21T04:50:51.116Z,89.31
2022-08-21T04:51:51.101Z,89.61
2022-08-21T04:52:51.093Z,89.81
2022-08-21T04:53:51.084Z,89.72
2022-08-21T04:54:54.787Z,89.01
2022-08-21T04:55:51.075Z,89.51
2022-08-21T04:56:51.046Z,89.81
2022-08-21T04:57:51.042Z,88.80
2022-08-21T04:58:51.045Z,89.11
2022-08-21T04:59:51.028Z,88.90
2022-08-21T05:00:51.004Z,89.01
2022-08-21T05:01:51.017Z,89.06
2022-08-21T05:02:51.141Z,88.80
2022-08-21T05:03:50.986Z,89.01
2022-08-21T05:04:50.963Z,88.66
2022-08-21T05:05:50.964Z,89.26
2022-08-21T05:06:50.960Z,88.25
2022-08-21T05:07:50.929Z,88.35
2022-08-21T05:08:50.930Z,88.05
2022-08-21T05:09:51.933Z,88.35
2022-08-21T05:10:50.901Z,88.11
2022-08-21T05:11:50.889Z,88.35
2022-08-21T05:12:50.954Z,88.56
2022-08-21T05:13:57.096Z,88.46
2022-08-21T05:14:51.873Z,89.23
2022-08-21T05:15:50.848Z,89.06
2022-08-21T05:16:50.858Z,87.71
2022-08-21T05:17:52.519Z,87.85
2022-08-21T05:18:51.819Z,88.31
2022-08-21T05:19:50.800Z,87.54
2022-08-21T05:20:50.794Z,88.42
2022-08-21T05:21:50.775Z,88.31
2022-08-21T05:22:50.785Z,88.21
2022-08-21T05:23:50.772Z,88.42
2022-08-21T05:24:50.759Z,87.51
2022-08-21T05:25:50.742Z,87.40
2022-08-21T05:26:50.718Z,87.91
2022-08-21T05:27:51.996Z,87.40
2022-08-21T05:28:50.697Z,87.30
2022-08-21T05:29:50.707Z,87.60
2022-08-21T05:30:50.700Z,88.31
2022-08-21T05:31:50.693Z,87.60
2022-08-21T05:32:50.656Z,87.40
2022-08-21T05:33:50.649Z,88.37
2022-08-21T05:34:50.633Z,87.26
2022-08-21T05:35:50.645Z,87.26
2022-08-21T05:36:50.614Z,87.46
2022-08-21T05:37:50.611Z,87.36
2022-08-21T05:38:50.589Z,86.76
2022-08-21T05:40:20.238Z,87.26
2022-08-21T05:40:51.660Z,86.71
2022-08-21T05:41:50.561Z,86.71
2022-08-21T05:42:55.079Z,86.31
2022-08-21T05:43:50.537Z,86.41
2022-08-21T05:44:50.545Z,86.71
2022-08-21T05:45:51.457Z,86.57
2022-08-21T05:46:50.506Z,86.27
2022-08-21T05:47:50.508Z,86.27
2022-08-21T05:48:50.497Z,85.96
2022-08-21T05:49:50.476Z,86.41
2022-08-21T05:50:50.463Z,86.16
2022-08-21T05:51:50.473Z,86.27
2022-08-21T05:52:50.481Z,86.10
2022-08-21T05:53:51.462Z,86.71
2022-08-21T05:54:50.422Z,86.47
2022-08-21T05:55:50.416Z,86.87
2022-08-21T05:56:50.393Z,86.98
2022-08-21T05:57:50.396Z,86.43
2022-08-21T05:58:50.383Z,86.63
2022-08-21T05:59:50.386Z,86.93
2022-08-21T06:00:50.364Z,87.24
2022-08-21T06:01:50.432Z,86.43
2022-08-21T06:02:50.328Z,86.22
2022-08-21T06:03:50.349Z,85.93
2022-08-21T06:04:50.316Z,85.82
2022-08-21T06:05:50.312Z,85.38
2022-08-21T06:06:50.307Z,85.58
2022-08-21T06:07:50.284Z,85.28
2022-08-21T06:08:50.271Z,86.19
2022-08-21T06:09:50.263Z,86.19
2022-08-21T06:10:50.246Z,86.04
2022-08-21T06:11:50.265Z,86.25
2022-08-21T06:12:50.253Z,85.94
2022-08-21T06:13:50.252Z,85.10
2022-08-21T06:14:50.230Z,85.19
2022-08-21T06:15:50.187Z,84.79
2022-08-21T06:16:50.205Z,84.35
2022-08-21T06:17:50.170Z,83.95
2022-08-21T06:18:50.194Z,83.64
2022-08-21T06:19:50.143Z,83.70
2022-08-21T06:20:50.135Z,83.10
2022-08-21T06:21:50.127Z,82.79
2022-08-21T06:22:50.116Z,82.79
2022-08-21T06:23:50.139Z,82.59
2022-08-21T06:24:50.089Z,82.19
2022-08-21T06:25:50.086Z,83.10
2022-08-21T06:26:50.081Z,83.30
2022-08-21T06:27:50.064Z,82.39
2022-08-21T06:28:50.080Z,82.19
2022-08-21T06:29:50.058Z,82.15
2022-08-21T06:30:50.021Z,81.95
2022-08-21T06:31:50.025Z,81.95
2022-08-21T06:32:50.034Z,81.61
2022-08-21T06:33:50.001Z,81.61
2022-08-21T06:34:49.992Z,81.21
2022-08-21T06:35:49.978Z,81.30
2022-08-21T06:36:49.963Z,81.17
2022-08-21T06:37:49.975Z,81.03
2022-08-21T06:38:51.816Z,80.32
2022-08-21T06:39:50.023Z,80.22
2022-08-21T06:40:49.941Z,80.12
2022-08-21T06:41:49.906Z,79.92
2022-08-21T06:42:49.898Z,79.48
2022-08-21T06:43:49.893Z,79.38
2022-08-21T06:44:49.907Z,79.35
2022-08-21T06:45:49.897Z,79.74
2022-08-21T06:46:49.858Z,78.40
2022-08-21T06:47:49.846Z,77.29
2022-08-21T06:48:49.849Z,77.63
2022-08-21T06:49:49.831Z,78.84
2022-08-21T06:50:49.821Z,78.64
2022-08-21T06:51:49.818Z,78.90
2022-08-21T06:52:49.791Z,78.30
2022-08-21T06:53:49.782Z,78.20
2022-08-21T06:54:49.778Z,77.66
2022-08-21T06:55:49.768Z,77.52
2022-08-21T06:56:49.768Z,76.92
2022-08-21T06:57:52.390Z,76.12
2022-08-21T06:58:49.741Z,76.02
2022-08-21T06:59:49.718Z,75.92
2022-08-21T07:00:49.739Z,75.98
2022-08-21T07:01:49.767Z,75.98
2022-08-21T07:02:49.714Z,75.18
2022-08-21T07:03:49.673Z,75.74
2022-08-21T07:04:49.655Z,74.54
2022-08-21T07:05:49.655Z,74.34
2022-08-21T07:06:49.645Z,74.34
2022-08-21T07:07:49.631Z,74.10
2022-08-21T07:08:49.638Z,74.60
2022-08-21T07:09:49.613Z,72.90
2022-08-21T07:10:49.616Z,73.67
2022-08-21T07:11:49.587Z,74.17
2022-08-21T07:12:49.596Z,72.66
2022-08-21T07:13:49.562Z,73.07
2022-08-21T07:14:49.577Z,73.27
2022-08-21T07:15:49.549Z,72.77
2022-08-21T07:16:49.530Z,72.86
2022-08-21T07:17:49.524Z,72.56
2022-08-21T07:18:49.512Z,73.03
2022-08-21T07:19:49.512Z,73.03
2022-08-21T07:20:49.496Z,72.80
2022-08-21T07:21:49.494Z,73.00
2022-08-21T07:22:49.486Z,71.69
2022-08-21T07:23:49.458Z,71.66
2022-08-21T07:24:49.456Z,71.06
2022-08-21T07:25:50.439Z,71.50
2022-08-21T07:26:49.429Z,71.66
2022-08-21T07:27:49.418Z,71.73
2022-08-21T07:28:49.400Z,71.03
2022-08-21T07:29:49.390Z,70.53
2022-08-21T07:30:49.382Z,69.93
2022-08-21T07:31:49.398Z,70.32
2022-08-21T07:32:49.361Z,70.73
2022-08-21T07:33:49.346Z,70.19
2022-08-21T07:34:49.359Z,69.89
2022-08-21T07:35:49.381Z,69.73
2022-08-21T07:36:49.418Z,71.59
2022-08-21T07:37:49.360Z,70.26
2022-08-21T07:38:49.332Z,69.96
2022-08-21T07:39:49.329Z,68.46
2022-08-21T07:40:49.287Z,68.63
2022-08-21T07:41:49.278Z,67.63
2022-08-21T07:42:49.257Z,69.02
2022-08-21T07:43:49.265Z,67.72
2022-08-21T07:44:50.873Z,68.43
2022-08-21T07:45:50.229Z,68.13
2022-08-21T07:46:49.216Z,68.13
2022-08-21T07:47:51.913Z,67.43
2022-08-21T07:48:50.229Z,68.23
2022-08-21T07:49:49.190Z,67.60
2022-08-21T07:50:49.176Z,67.60
2022-08-21T07:51:49.163Z,66.80
2022-08-21T07:52:49.175Z,67.36
2022-08-21T07:53:49.135Z,66.66
2022-08-21T07:54:49.162Z,65.83
2022-08-21T07:55:49.114Z,66.03
2022-08-21T07:56:49.101Z,65.94
2022-08-21T07:57:49.100Z,66.00
2022-08-21T07:58:49.080Z,65.11
2022-08-21T07:59:49.072Z,65.20
2022-08-21T08:00:49.078Z,65.80
2022-08-21T08:01:49.062Z,65.91
2022-08-21T08:02:49.037Z,65.80
2022-08-21T08:03:49.025Z,66.20
2022-08-21T08:04:50.730Z,65.37
2022-08-21T08:05:49.012Z,64.48
2022-08-21T08:06:48.996Z,64.84
2022-08-21T08:07:48.983Z,64.91
2022-08-21T08:08:48.981Z,64.31
2022-08-21T08:09:48.981Z,64.81
2022-08-21T08:10:48.950Z,64.18
2022-08-21T08:11:49.034Z,63.69
2022-08-21T08:12:48.991Z,64.18
2022-08-21T08:13:48.961Z,62.40
2022-08-21T08:14:48.913Z,62.69
2022-08-21T08:15:48.909Z,62.89
2022-08-21T08:16:48.892Z,62.69
2022-08-21T08:17:48.903Z,63.06
2022-08-21T08:18:48.870Z,63.85
2022-08-21T08:19:48.854Z,62.46
2022-08-21T08:20:48.862Z,62.76
2022-08-21T08:21:48.855Z,61.96
2022-08-21T08:22:50.101Z,62.37
2022-08-21T08:23:48.813Z,62.46
2022-08-21T08:24:48.806Z,62.26
2022-08-21T08:25:48.823Z,62.26
2022-08-21T08:26:53.709Z,61.87
2022-08-21T08:27:49.768Z,62.56
2022-08-21T08:28:48.758Z,62.50
2022-08-21T08:29:48.751Z,61.71
2022-08-21T08:30:48.763Z,61.41
2022-08-21T08:31:48.745Z,60.69
2022-08-21T08:32:48.752Z,60.12
2022-08-21T08:33:48.712Z,60.52
2022-08-21T08:34:48.691Z,61.01
2022-08-21T08:35:48.698Z,60.82
2022-08-21T08:36:48.680Z,60.82
2022-08-21T08:37:52.289Z,60.39
2022-08-21T08:38:48.647Z,60.49
2022-08-21T08:39:48.711Z,60.98
2022-08-21T08:40:48.651Z,60.19
2022-08-21T08:41:48.669Z,59.99
2022-08-21T08:42:49.610Z,58.70
2022-08-21T08:43:48.615Z,59.36
2022-08-21T08:44:48.605Z,58.57
2022-08-21T08:45:48.616Z,58.17
2022-08-21T08:46:48.571Z,58.90
2022-08-21T08:47:48.556Z,58.80
2022-08-21T08:48:53.226Z,59.22
2022-08-21T08:49:48.537Z,59.42
2022-08-21T08:50:48.547Z,59.82
2022-08-21T08:51:48.527Z,59.72
2022-08-21T08:52:48.517Z,59.72
2022-08-21T08:53:48.499Z,59.59
2022-08-21T08:54:48.504Z,60.39
2022-08-21T08:55:48.498Z,58.37
2022-08-21T08:56:48.472Z,59.56
2022-08-21T08:57:49.393Z,57.78
2022-08-21T08:58:48.472Z,57.70
2022-08-21T08:59:48.446Z,59.19
2022-08-21T09:00:48.518Z,58.60
2022-08-21T09:01:48.511Z,58.87
2022-08-21T09:02:48.418Z,57.51
2022-08-21T09:03:48.393Z,59.47
2022-08-21T09:04:48.383Z,58.77
2022-08-21T09:05:48.367Z,57.87
2022-08-21T09:06:48.389Z,58.30
2022-08-21T09:07:48.347Z,59.59
2022-08-21T09:08:48.372Z,58.97
2022-08-21T09:09:48.321Z,58.44
2022-08-21T09:10:48.322Z,58.04
2022-08-21T09:11:48.312Z,57.72
2022-08-21T09:12:48.294Z,57.23
2022-08-21T09:13:48.296Z,56.63
2022-08-21T09:14:48.299Z,56.83
2022-08-21T09:15:48.263Z,58.59
2022-08-21T09:16:48.265Z,56.68
2022-08-21T09:17:48.237Z,55.78
2022-08-21T09:18:48.248Z,55.88
2022-08-21T09:19:48.224Z,56.30
2022-08-21T09:20:48.221Z,56.21
2022-08-21T09:21:48.202Z,56.08
2022-08-21T09:22:48.193Z,55.98
2022-08-21T09:23:48.177Z,56.18
2022-08-21T09:24:51.862Z,56.25
2022-08-21T09:25:48.158Z,55.56
2022-08-21T09:26:48.143Z,54.77
2022-08-21T09:27:48.138Z,55.19
2022-08-21T09:28:48.124Z,55.94
2022-08-21T09:29:48.190Z,56.04
2022-08-21T09:30:48.114Z,56.53
2022-08-21T09:31:48.091Z,56.23
2022-08-21T09:32:48.095Z,56.83
2022-08-21T09:33:48.070Z,56.34
2022-08-21T09:34:48.068Z,55.81
2022-08-21T09:35:48.047Z,55.29
2022-08-21T09:36:48.058Z,55.29
2022-08-21T09:37:48.045Z,54.47
2022-08-21T09:38:48.021Z,54.27
2022-08-21T09:39:48.935Z,55.26
2022-08-21T09:40:47.996Z,54.67
2022-08-21T09:41:47.984Z,54.35
2022-08-21T09:42:47.980Z,54.24
2022-08-21T09:43:47.969Z,52.69
2022-08-21T09:44:47.964Z,52.61
2022-08-21T09:45:47.959Z,54.49
2022-08-21T09:46:47.942Z,54.00
2022-08-21T09:47:47.951Z,55.49
2022-08-21T09:48:47.919Z,55.36
2022-08-21T09:49:47.900Z,54.47
2022-08-21T09:50:47.898Z,53.95
2022-08-21T09:51:47.896Z,54.24
2022-08-21T09:52:47.867Z,53.55
2022-08-21T09:53:47.879Z,53.92
2022-08-21T09:54:47.868Z,54.22
2022-08-21T09:55:47.848Z,51.32
2022-08-21T09:56:47.852Z,52.01
2022-08-21T09:57:50.236Z,51.42
2022-08-21T09:58:47.807Z,51.32
2022-08-21T09:59:47.830Z,50.71
2022-08-21T10:00:47.816Z,50.41
2022-08-21T10:01:47.777Z,50.81
2022-08-21T10:02:47.771Z,52.39
2022-08-21T10:03:47.765Z,51.07
2022-08-21T10:04:47.750Z,51.37
2022-08-21T10:05:47.754Z,52.53
2022-08-21T10:06:47.722Z,50.88
2022-08-21T10:07:47.738Z,51.32
2022-08-21T10:08:47.697Z,52.12
2022-08-21T10:09:47.710Z,51.92
2022-08-21T10:10:47.687Z,51.72
2022-08-21T10:11:47.662Z,52.71
2022-08-21T10:12:47.652Z,51.92
2022-08-21T10:13:47.656Z,51.20
2022-08-21T10:14:47.638Z,51.52
2022-08-21T10:15:47.653Z,50.61
2022-08-21T10:16:47.614Z,51.42
2022-08-21T10:17:47.640Z,52.19
2022-08-21T10:18:47.594Z,51.28
2022-08-21T10:19:47.589Z,51.47
2022-08-21T10:20:47.584Z,50.59
2022-08-21T10:21:49.217Z,50.98
2022-08-21T10:22:47.562Z,50.38
2022-08-21T10:23:47.540Z,50.71
2022-08-21T10:24:47.552Z,51.20
2022-08-21T10:25:52.059Z,52.48
2022-08-21T10:26:48.527Z,51.00
2022-08-21T10:27:47.502Z,51.40
2022-08-21T10:28:47.485Z,51.18
2022-08-21T10:29:47.498Z,50.78
2022-08-21T10:30:47.469Z,50.38
2022-08-21T10:31:47.456Z,50.26
2022-08-21T10:32:47.476Z,49.37
2022-08-21T10:33:47.434Z,50.66
2022-08-21T10:34:47.431Z,50.24
2022-08-21T10:35:47.416Z,49.25
2022-08-21T10:36:47.411Z,48.66
2022-08-21T10:37:47.394Z,50.36
2022-08-21T10:38:58.573Z,49.48
2022-08-21T10:39:48.399Z,50.56
2022-08-21T10:40:47.359Z,48.98
2022-08-21T10:41:47.351Z,50.26
2022-08-21T10:42:47.351Z,50.34
2022-08-21T10:43:47.348Z,51.40
2022-08-21T10:44:47.350Z,49.30
2022-08-21T10:45:47.312Z,47.85
2022-08-21T10:46:47.307Z,48.56
2022-08-21T10:47:47.298Z,48.75
2022-08-21T10:48:47.305Z,49.74
2022-08-21T10:49:47.293Z,48.58
2022-08-21T10:50:47.271Z,49.52
2022-08-21T10:51:47.274Z,50.71
2022-08-21T10:52:47.245Z,49.64
2022-08-21T10:53:47.256Z,49.62
2022-08-21T10:54:47.231Z,50.01
2022-08-21T10:55:47.214Z,50.90
2022-08-21T10:56:47.203Z,49.89
2022-08-21T10:57:47.195Z,49.10
2022-08-21T10:58:47.184Z,49.60
2022-08-21T10:59:47.186Z,48.61
2022-08-21T11:00:47.247Z,49.20
2022-08-21T11:01:47.148Z,49.60
2022-08-21T11:02:47.137Z,49.27
2022-08-21T11:03:47.147Z,49.77
2022-08-21T11:04:49.954Z,49.08
2022-08-21T11:05:50.626Z,47.97
2022-08-21T11:06:47.119Z,48.56
2022-08-21T11:07:47.087Z,47.77
2022-08-21T11:08:47.078Z,47.50
2022-08-21T11:09:47.115Z,47.40
2022-08-21T11:10:51.220Z,48.78
2022-08-21T11:11:53.792Z,47.50
2022-08-21T11:12:48.042Z,47.91
2022-08-21T11:13:47.031Z,47.42
2022-08-21T11:14:49.898Z,48.49
2022-08-21T11:15:47.028Z,47.99
2022-08-21T11:16:46.994Z,48.27
2022-08-21T11:17:46.982Z,47.89
2022-08-21T11:18:46.991Z,47.87
2022-08-21T11:19:46.979Z,47.38
2022-08-21T11:20:46.986Z,47.75
2022-08-21T11:21:46.949Z,47.45
2022-08-21T11:22:50.198Z,47.45
2022-08-21T11:23:47.942Z,47.28
2022-08-21T11:24:46.917Z,47.67
2022-08-21T11:25:46.900Z,48.54
2022-08-21T11:26:46.918Z,47.63
2022-08-21T11:27:46.899Z,47.23
2022-08-21T11:28:46.866Z,46.54
2022-08-21T11:29:46.855Z,47.70
2022-08-21T11:30:46.844Z,45.43
2022-08-21T11:31:46.889Z,45.61
2022-08-21T11:32:46.844Z,45.24
2022-08-21T11:33:46.816Z,46.69
2022-08-21T11:34:46.808Z,46.40
2022-08-21T11:35:46.792Z,45.31
2022-08-21T11:36:47.516Z,45.68
2022-08-21T11:37:46.807Z,45.41
2022-08-21T11:38:46.780Z,45.63
2022-08-21T11:39:46.834Z,45.90
2022-08-21T11:40:46.747Z,46.59
2022-08-21T11:41:46.731Z,45.71
2022-08-21T11:42:46.728Z,45.90
2022-08-21T11:43:46.727Z,45.09
2022-08-21T11:44:46.712Z,45.71
2022-08-21T11:45:46.692Z,45.90
2022-08-21T11:46:46.680Z,46.12
2022-08-21T11:47:48.929Z,45.63
2022-08-21T11:48:46.679Z,45.51
2022-08-21T11:49:46.651Z,45.02
2022-08-21T11:50:47.402Z,44.90
2022-08-21T11:51:46.629Z,45.02
2022-08-21T11:52:46.632Z,45.78
2022-08-21T11:53:49.815Z,45.59
2022-08-21T11:54:47.606Z,44.90
2022-08-21T11:55:46.608Z,44.43
2022-08-21T11:56:46.598Z,45.21
2022-08-21T11:57:46.568Z,44.92
2022-08-21T11:58:46.569Z,44.92
2022-08-21T11:59:46.560Z,43.74
2022-08-21T12:00:46.553Z,45.51
2022-08-21T12:01:46.622Z,43.64
2022-08-21T12:02:46.569Z,45.41
2022-08-21T12:03:46.534Z,45.02
2022-08-21T12:04:47.024Z,44.90
2022-08-21T12:05:46.501Z,43.93
2022-08-21T12:06:46.473Z,44.43
2022-08-21T12:07:46.471Z,43.24
2022-08-21T12:08:46.468Z,45.04
2022-08-21T12:09:46.495Z,44.65
2022-08-21T12:10:46.437Z,45.34
2022-08-21T12:11:46.439Z,44.94
2022-08-21T12:12:46.411Z,45.21
2022-08-21T12:13:46.403Z,43.74
2022-08-21T12:14:46.412Z,44.82
2022-08-21T12:15:46.391Z,45.00
2022-08-21T12:16:46.367Z,44.33
2022-08-21T12:17:46.384Z,45.26
2022-08-21T12:18:46.349Z,45.75
2022-08-21T12:19:46.341Z,44.45
2022-08-21T12:20:50.772Z,45.14
2022-08-21T12:21:46.334Z,45.24
2022-08-21T12:22:46.323Z,45.63
2022-08-21T12:23:47.306Z,45.21
2022-08-21T12:24:46.291Z,44.23
2022-08-21T12:25:46.279Z,44.55
2022-08-21T12:26:46.265Z,44.15
2022-08-21T12:27:46.257Z,43.86
2022-08-21T12:28:46.285Z,43.19
2022-08-21T12:29:46.233Z,44.65
2022-08-21T12:30:46.228Z,44.20
2022-08-21T12:31:46.234Z,45.01
2022-08-21T12:32:46.203Z,44.73
2022-08-21T12:33:46.199Z,46.14
2022-08-21T12:34:46.204Z,46.14
2022-08-21T12:35:46.192Z,45.74
2022-08-21T12:36:46.194Z,47.00
2022-08-21T12:37:46.157Z,45.82
2022-08-21T12:38:46.148Z,46.31
2022-08-21T12:39:46.175Z,45.72
2022-08-21T12:40:46.148Z,46.11
2022-08-21T12:41:46.130Z,45.89
2022-08-21T12:42:56.519Z,45.32
2022-08-21T12:43:47.096Z,46.09
2022-08-21T12:44:46.083Z,45.70
2022-08-21T12:45:46.074Z,45.60
2022-08-21T12:46:46.077Z,45.70
2022-08-21T12:47:46.067Z,45.10
2022-08-21T12:48:46.051Z,46.00
2022-08-21T12:49:46.045Z,45.52
2022-08-21T12:50:48.891Z,45.52
2022-08-21T12:51:46.010Z,45.74
2022-08-21T12:52:45.996Z,46.53
2022-08-21T12:53:45.999Z,47.84
2022-08-21T12:54:45.977Z,45.96
2022-08-21T12:55:45.979Z,45.86
2022-08-21T12:56:45.956Z,46.06
2022-08-21T12:57:45.944Z,47.05
2022-08-21T12:58:45.948Z,45.96
2022-08-21T12:59:45.935Z,45.74
2022-08-21T13:00:45.910Z,45.62
2022-08-21T13:01:45.973Z,45.03
2022-08-21T13:02:45.931Z,45.52
2022-08-21T13:03:45.895Z,45.72
2022-08-21T13:04:45.871Z,47.62
2022-08-21T13:05:45.874Z,47.50
2022-08-21T13:06:45.858Z,47.99
2022-08-21T13:07:45.899Z,46.91
2022-08-21T13:08:47.390Z,47.60
2022-08-21T13:09:45.808Z,46.33
2022-08-21T13:10:45.801Z,45.45
2022-08-21T13:11:45.806Z,46.44
2022-08-21T13:12:45.865Z,46.22
2022-08-21T13:13:50.071Z,45.62
2022-08-21T13:14:46.290Z,45.72
2022-08-21T13:15:47.895Z,45.72
2022-08-21T13:16:45.736Z,45.62
2022-08-21T13:17:45.727Z,45.70
2022-08-21T13:18:45.731Z,45.30
2022-08-21T13:19:45.733Z,45.10
2022-08-21T13:20:45.692Z,45.01
2022-08-21T13:21:45.679Z,45.78
2022-08-21T13:22:45.786Z,45.18
2022-08-21T13:23:49.123Z,43.31
2022-08-21T13:24:45.687Z,43.41
2022-08-21T13:25:45.662Z,44.59
2022-08-21T13:26:45.653Z,43.31
2022-08-21T13:27:45.618Z,44.69
2022-08-21T13:28:45.604Z,44.98
2022-08-21T13:29:48.406Z,43.62
2022-08-21T13:30:45.624Z,44.22
2022-08-21T13:31:45.570Z,44.91
2022-08-21T13:32:45.563Z,45.20
2022-08-21T13:33:45.552Z,46.29
2022-08-21T13:34:45.564Z,45.28
2022-08-21T13:35:45.541Z,45.28
2022-08-21T13:36:45.531Z,44.98
2022-08-21T13:37:45.511Z,45.38
2022-08-21T13:38:45.519Z,44.59
2022-08-21T13:39:45.514Z,44.98
2022-08-21T13:40:45.496Z,45.78
2022-08-21T13:41:45.460Z,43.82
2022-08-21T13:42:45.471Z,45.30
2022-08-21T13:43:45.436Z,44.61
2022-08-21T13:44:45.486Z,45.60
2022-08-21T13:45:45.416Z,45.60
2022-08-21T13:46:45.398Z,45.40
2022-08-21T13:47:45.404Z,45.60
2022-08-21T13:48:45.426Z,45.01
2022-08-21T13:49:45.374Z,45.10
2022-08-21T13:50:45.365Z,45.03
2022-08-21T13:51:45.353Z,45.03
2022-08-21T13:52:45.337Z,45.23
2022-08-21T13:53:45.343Z,45.64
2022-08-21T13:54:45.343Z,45.64
2022-08-21T13:55:45.318Z,45.64
2022-08-21T13:56:45.304Z,45.94
2022-08-21T13:57:45.285Z,45.64
2022-08-21T13:58:45.303Z,45.54
2022-08-21T13:59:45.288Z,46.04
2022-08-21T14:00:45.265Z,45.74
2022-08-21T14:01:45.266Z,46.06
2022-08-21T14:02:45.232Z,45.76
2022-08-21T14:03:45.260Z,47.15
2022-08-21T14:04:45.217Z,46.75
2022-08-21T14:05:45.246Z,47.64
2022-08-21T14:06:45.207Z,47.77
2022-08-21T14:07:45.211Z,47.86
2022-08-21T14:08:45.194Z,47.77
2022-08-21T14:09:45.183Z,47.17
2022-08-21T14:10:45.164Z,47.77
2022-08-21T14:11:45.161Z,47.27
2022-08-21T14:12:45.136Z,47.17
2022-08-21T14:13:45.157Z,47.37
2022-08-21T14:14:45.119Z,48.16
2022-08-21T14:15:45.107Z,49.47
2022-08-21T14:16:45.094Z,47.56
2022-08-21T14:17:45.109Z,47.78
2022-08-21T14:18:45.071Z,47.99
2022-08-21T14:19:45.077Z,47.89
2022-08-21T14:20:45.066Z,47.78
2022-08-21T14:21:45.042Z,47.19
2022-08-21T14:22:45.026Z,49.47
2022-08-21T14:23:45.024Z,49.79
2022-08-21T14:24:45.019Z,49.37
2022-08-21T14:25:45.048Z,49.89
2022-08-21T14:26:45.002Z,48.68
2022-08-21T14:27:45.008Z,47.69
2022-08-21T14:28:44.966Z,47.78
2022-08-21T14:29:44.984Z,48.38
2022-08-21T14:30:44.946Z,47.89
2022-08-21T14:31:44.948Z,47.59
2022-08-21T14:32:45.930Z,47.66
2022-08-21T14:33:44.931Z,47.77
2022-08-21T14:34:44.906Z,47.96
2022-08-21T14:35:44.914Z,48.26
2022-08-21T14:36:44.880Z,47.56
2022-08-21T14:37:44.923Z,48.28
2022-08-21T14:38:44.871Z,48.77
2022-08-21T14:39:45.425Z,48.38
2022-08-21T14:40:44.887Z,48.70
2022-08-21T14:41:44.827Z,48.58
2022-08-21T14:42:44.861Z,49.40
2022-08-21T14:43:44.818Z,48.70
2022-08-21T14:44:44.791Z,49.99
2022-08-21T14:45:44.790Z,50.29
2022-08-21T14:46:55.505Z,49.49
2022-08-21T14:47:45.791Z,49.69
2022-08-21T14:48:44.770Z,49.89
2022-08-21T14:49:44.755Z,49.59
2022-08-21T14:50:44.760Z,50.29
2022-08-21T14:51:54.359Z,49.59
2022-08-21T14:52:45.723Z,49.49
2022-08-21T14:53:44.708Z,50.48
2022-08-21T14:54:44.728Z,49.89
2022-08-21T14:55:44.679Z,50.09
2022-08-21T14:56:44.674Z,50.09
2022-08-21T14:57:44.658Z,50.18
2022-08-21T14:58:44.641Z,49.69
2022-08-21T14:59:44.635Z,50.58
2022-08-21T15:00:44.638Z,50.48
2022-08-21T15:01:44.679Z,50.11
2022-08-21T15:02:44.626Z,50.09
2022-08-21T15:03:44.599Z,50.88
2022-08-21T15:04:45.456Z,49.69
2022-08-21T15:05:44.611Z,50.78
2022-08-21T15:06:44.557Z,50.58
2022-08-21T15:07:44.557Z,50.98
2022-08-21T15:08:44.550Z,50.11
2022-08-21T15:09:44.541Z,50.88
2022-08-21T15:11:10.169Z,50.48
2022-08-21T15:11:45.508Z,50.48
2022-08-21T15:12:44.508Z,50.88
2022-08-21T15:13:44.489Z,50.88
2022-08-21T15:14:44.513Z,51.77
2022-08-21T15:15:44.481Z,50.78
2022-08-21T15:16:44.470Z,50.78
2022-08-21T15:17:48.188Z,51.07
2022-08-21T15:18:44.434Z,51.28
2022-08-21T15:19:44.421Z,51.47
2022-08-21T15:20:44.431Z,50.98
2022-08-21T15:21:44.429Z,51.07
2022-08-21T15:22:47.809Z,50.81
2022-08-21T15:23:44.384Z,50.68
2022-08-21T15:24:44.401Z,50.58
2022-08-21T15:25:44.361Z,51.40
2022-08-21T15:26:44.361Z,50.78
2022-08-21T15:27:44.354Z,50.68
2022-08-21T15:28:44.330Z,51.79
2022-08-21T15:29:44.320Z,51.28
2022-08-21T15:30:44.334Z,51.20
2022-08-21T15:31:44.300Z,51.50
2022-08-21T15:32:44.298Z,50.38
2022-08-21T15:33:44.316Z,51.30
2022-08-21T15:34:44.264Z,51.50
2022-08-21T15:35:44.253Z,51.30
2022-08-21T15:36:44.244Z,51.20
2022-08-21T15:37:44.245Z,51.50
2022-08-21T15:38:44.231Z,51.50
2022-08-21T15:39:46.407Z,51.40
2022-08-21T15:40:51.821Z,51.30
2022-08-21T15:41:45.189Z,52.31
2022-08-21T15:42:44.228Z,52.02
2022-08-21T15:43:44.173Z,51.52
2022-08-21T15:44:44.151Z,52.12
2022-08-21T15:45:44.154Z,52.41
2022-08-21T15:46:44.149Z,52.22
2022-08-21T15:47:44.126Z,52.12
2022-08-21T15:48:44.145Z,52.02
2022-08-21T15:49:44.107Z,52.41
2022-08-21T15:50:44.100Z,52.12
2022-08-21T15:51:44.114Z,52.22
2022-08-21T15:52:44.075Z,51.82
2022-08-21T15:53:44.060Z,52.22
2022-08-21T15:54:44.087Z,52.22
2022-08-21T15:55:44.086Z,52.02
2022-08-21T15:56:44.029Z,52.51
2022-08-21T15:57:44.023Z,52.51
2022-08-21T15:58:45.014Z,52.71
2022-08-21T15:59:43.997Z,53.01
2022-08-21T16:00:43.992Z,52.34
2022-08-21T16:01:44.838Z,53.13
2022-08-21T16:02:43.996Z,52.81
2022-08-21T16:03:43.972Z,53.11
2022-08-21T16:04:43.945Z,52.73
2022-08-21T16:05:43.938Z,53.13
2022-08-21T16:06:54.224Z,53.83
2022-08-21T16:07:44.990Z,53.43
2022-08-21T16:08:43.929Z,53.43
2022-08-21T16:09:43.892Z,53.66
2022-08-21T16:10:43.885Z,53.75
2022-08-21T16:11:43.870Z,53.66
2022-08-21T16:12:43.863Z,53.16
2022-08-21T16:13:43.890Z,53.33
2022-08-21T16:14:43.857Z,52.66
2022-08-21T16:15:43.831Z,53.36
2022-08-21T16:16:43.821Z,52.76
2022-08-21T16:17:43.809Z,53.16
2022-08-21T16:18:43.794Z,53.88
2022-08-21T16:19:43.806Z,53.66
2022-08-21T16:20:43.777Z,52.79
2022-08-21T16:21:43.783Z,53.28
2022-08-21T16:22:44.630Z,52.49
2022-08-21T16:23:43.758Z,53.31
2022-08-21T16:24:43.741Z,53.78
2022-08-21T16:25:43.747Z,53.88
2022-08-21T16:26:43.739Z,53.48
2022-08-21T16:27:43.702Z,53.11
2022-08-21T16:28:43.716Z,52.72
2022-08-21T16:29:43.679Z,53.08
2022-08-21T16:30:43.691Z,53.28
2022-08-21T16:31:43.666Z,53.68
2022-08-21T16:32:43.651Z,53.68
2022-08-21T16:33:43.638Z,53.58
2022-08-21T16:34:43.647Z,53.70
2022-08-21T16:35:43.640Z,53.58
2022-08-21T16:36:43.633Z,53.28
2022-08-21T16:37:43.658Z,53.70
2022-08-21T16:38:43.607Z,53.11
2022-08-21T16:39:43.679Z,53.80
2022-08-21T16:40:43.564Z,53.01
2022-08-21T16:41:43.565Z,53.70
2022-08-21T16:42:43.564Z,53.01
2022-08-21T16:43:43.534Z,53.41
2022-08-21T16:44:43.558Z,53.41
2022-08-21T16:45:44.549Z,53.01
2022-08-21T16:46:43.505Z,53.41
2022-08-21T16:47:43.512Z,54.21
2022-08-21T16:48:43.493Z,53.51
2022-08-21T16:49:43.493Z,53.11
2022-08-21T16:50:45.896Z,53.04
2022-08-21T16:51:43.460Z,53.41
2022-08-21T16:52:43.454Z,53.61
2022-08-21T16:53:43.429Z,53.23
2022-08-21T16:54:43.440Z,53.73
2022-08-21T16:55:43.419Z,53.33
2022-08-21T16:56:47.459Z,54.43
2022-08-21T16:57:43.389Z,53.93
2022-08-21T16:58:43.384Z,53.76
2022-08-21T16:59:43.369Z,53.73
2022-08-21T17:00:43.379Z,54.43
2022-08-21T17:01:43.375Z,54.53
2022-08-21T17:02:43.360Z,54.55
2022-08-21T17:03:43.348Z,53.73
2022-08-21T17:04:43.317Z,53.73
2022-08-21T17:05:43.303Z,53.73
2022-08-21T17:06:43.300Z,54.25
2022-08-21T17:07:43.293Z,53.93
2022-08-21T17:08:43.306Z,54.23
2022-08-21T17:09:43.262Z,54.03
2022-08-21T17:10:43.261Z,53.66
2022-08-21T17:11:43.245Z,54.06
2022-08-21T17:12:43.240Z,54.16
2022-08-21T17:13:43.250Z,54.75
2022-08-21T17:14:43.207Z,53.86
2022-08-21T17:15:43.232Z,54.46
2022-08-21T17:16:43.197Z,54.18
2022-08-21T17:17:43.177Z,54.55
2022-08-21T17:18:43.222Z,55.55
2022-08-21T17:19:43.155Z,54.25
2022-08-21T17:20:43.160Z,53.86
2022-08-21T17:21:43.168Z,54.35
2022-08-21T17:22:43.123Z,54.25